Flight Track Log - Related Links

Times and Time Zones

All times are in EDT time to prevent confusion due to time zone crossing. See the N721EA flight status page for this flight to view local times or setup timezone preferences in your user account.

Time Position Orientation Groundspeed Altitude Reporting Facility
EDT Latitude Longitude Course Direction KTS MPH feet Rate Location/Type
Fri 01:29:50 PM 35.7453 -92.5592 126° Southeast 251 289 7,300  Level Memphis Center
Fri 01:30:50 PM 35.7192 -92.4997 118° Southeast 228 262 8,800 1,350 Climbing Memphis Center
Fri 01:31:50 PM 35.6931 -92.4428 119° Southeast 206 237 10,000 1,150 Climbing Memphis Center
Fri 01:32:50 PM 35.6708 -92.3836 115° Southeast 192 221 11,100 1,100 Climbing Memphis Center
Fri 01:33:50 PM 35.6489 -92.3217 114° Southeast 187 215 12,200 1,100 Climbing Memphis Center
Fri 01:34:00 PM 35.7149 -92.2967 122° Southeast  Level Estimated
Fri 01:34:50 PM 35.6228 -92.2622 118° Southeast 187 215 13,300  Level Memphis Center
Fri 01:35:50 PM 35.5944 -92.2003 119° Southeast 192 221 14,200 850 Climbing Memphis Center
Fri 01:36:50 PM 35.5642 -92.1386 121° Southeast 205 236 15,000 400 Climbing Memphis Center
Fri 01:37:50 PM 35.5297 -92.0714 122° Southeast 212 244 15,000  Level Memphis Center
Fri 01:38:50 PM 35.4931 -91.9992 122° Southeast 232 267 15,000  Level Memphis Center
Fri 01:39:50 PM 35.4564 -91.9219 120° Southeast 245 282 15,000  Level Memphis Center
Fri 01:40:50 PM 35.4219 -91.8450 119° Southeast 256 295 15,000  Level Memphis Center
Fri 01:41:50 PM 35.3853 -91.7681 120° Southeast 256 295 15,000  Level Memphis Center
Fri 01:42:50 PM 35.3486 -91.6936 121° Southeast 256 295 15,000  Level Memphis Center
Fri 01:43:50 PM 35.3097 -91.6167 122° Southeast 262 302 15,000  Level Memphis Center
Fri 01:44:50 PM 35.2731 -91.5422 121° Southeast 262 302 15,000  Level Memphis Center
Fri 01:45:50 PM 35.2383 -91.4656 119° Southeast 257 296 15,000  Level Memphis Center
Fri 01:46:50 PM 35.1992 -91.3914 123° Southeast 257 296 15,000  Level Memphis Center
Fri 01:47:50 PM 35.1644 -91.3147 119° Southeast 257 296 15,000  Level Memphis Center
Fri 01:48:50 PM 35.1314 -91.2431 119° Southeast 257 296 15,000  Level Memphis Center
Fri 01:49:50 PM 35.0944 -91.1717 122° Southeast 257 296 15,000 -200 Level Memphis Center
Fri 01:50:50 PM 35.0575 -91.0953 121° Southeast 257 296 14,600 -800 Descending Memphis Center
Fri 01:51:50 PM 35.0161 -91.0111 121° Southeast 257 296 13,400 -1,400 Descending Memphis Center
Fri 01:52:50 PM 34.9747 -90.9325 123° Southeast 270 311 11,800 -1,700 Descending Memphis Center
Fri 01:53:50 PM 34.9375 -90.8486 118° Southeast 275 316 10,000 -2,000 Descending Memphis Center
Fri 01:54:50 PM 34.8961 -90.7697 123° Southeast 275 316 7,800 -2,100 Descending Memphis Center
Fri 01:55:50 PM 34.8589 -90.6936 121° Southeast 275 316 5,800 -1,750 Descending Memphis Center
Fri 01:56:50 PM 34.8236 -90.6228 121° Southeast 263 303 4,300 -1,350 Descending Memphis Center
Fri 01:57:50 PM 34.7903 -90.5492 119° Southeast 257 296 3,100 -700 Descending Memphis Center
Fri 01:58:50 PM 34.7569 -90.4861 123° Southeast 237 273 2,900 -150 Descending Memphis Center
Fri 01:59:50 PM 34.7236 -90.4278 125° Southeast 237 273 2,800 1,550 Descending Memphis Center
Fri 02:00:50 PM 34.6881 -90.3622 123° Southeast 237 273 6,000 1,600 Climbing Memphis Center
Fri 02:01:50 PM 34.6506 -90.2939 124° Southeast 237 273 6,000  Level Memphis Center
Fri 02:02:50 PM 34.6150 -90.2308 124° Southeast 237 273 6,000  Level Memphis Center
Fri 02:03:50 PM 34.6067 -90.2183 129° Southeast 237 273 6,000  Level Memphis Center
Fri 02:05:50 PM 34.6067 -90.2183 219° Southwest 237 273 6,000  Level Memphis Center

Login

Don't have an account? Register now (free) for customized features, flight alerts, and more!